Time;durP1;ratioP1;P1;durP2;ratioP2;P2;SDS_P1;SDS_P2;PMS_P1;PMS_P2;Temp;Humidity;BMP_temperature;BMP_pressure;BME280_temperature;BME280_humidity;BME280_pressure;Samples;Min_cycle;Max_cycle;Signal;HPM_P1;HPM_P2
2024/04/18 00:02:10;;;;;;;2.90;1.65;;;;;;;4.67;86.15;92580.34;5537524;25;19985;-79
2024/04/18 00:04:35;;;;;;;3.40;1.90;;;;;;;4.52;87.23;92592.88;5505744;26;20038;-79
2024/04/18 00:07:01;;;;;;;2.90;1.60;;;;;;;4.48;88.25;92591.13;5537325;26;20022;-79
2024/04/18 00:09:26;;;;;;;3.03;1.77;;;;;;;4.36;89.25;92599.66;5537469;26;19985;-80
2024/04/18 00:11:52;;;;;;;2.90;1.77;;;;;;;4.11;90.10;92579.97;5536963;26;20096;-80
2024/04/18 00:14:17;;;;;;;4.15;1.92;;;;;;;4.14;89.50;92579.38;5538204;26;19993;-80
2024/04/18 00:16:43;;;;;;;2.35;1.55;;;;;;;4.05;89.94;92574.09;5541014;25;20017;-79
2024/04/18 00:19:08;;;;;;;4.07;1.80;;;;;;;4.07;90.64;92568.50;5541517;25;19985;-80
2024/04/18 00:21:34;;;;;;;3.47;1.50;;;;;;;3.92;90.71;92580.97;5540680;25;19981;-80
2024/04/18 00:23:59;;;;;;;3.88;2.13;;;;;;;3.87;91.33;92585.59;5540631;25;19997;-80
2024/04/18 00:26:25;;;;;;;3.22;1.52;;;;;;;3.87;90.77;92582.97;5540607;25;20085;-81
2024/04/18 00:28:50;;;;;;;3.38;1.42;;;;;;;3.84;89.11;92583.56;5541184;25;20045;-81
2024/04/18 00:31:16;;;;;;;3.53;2.15;;;;;;;3.80;89.59;92576.25;5540633;26;19986;-81
2024/04/18 00:33:41;;;;;;;3.70;1.75;;;;;;;3.92;90.21;92562.53;5540717;26;19986;-81
2024/04/18 00:36:07;;;;;;;3.17;1.65;;;;;;;3.93;90.08;92555.38;5540549;26;20150;-80
2024/04/18 00:38:33;;;;;;;3.70;2.25;;;;;;;3.92;90.96;92559.13;5540768;25;19997;-81
2024/04/18 00:40:58;;;;;;;2.58;1.67;;;;;;;3.93;88.80;92560.66;5540830;26;19985;-81
2024/04/18 00:43:24;;;;;;;3.22;1.80;;;;;;;3.91;88.27;92558.34;5540724;26;19997;-81
2024/04/18 00:45:50;;;;;;;3.53;1.80;;;;;;;3.95;87.44;92569.06;5540592;26;19997;-81
2024/04/18 00:48:15;;;;;;;3.60;2.03;;;;;;;3.81;88.51;92579.69;5508854;26;20038;-81
2024/04/18 00:50:41;;;;;;;2.50;1.80;;;;;;;3.71;88.33;92575.44;5508963;26;20028;-80
2024/04/18 00:53:08;;;;;;;4.53;2.17;;;;;;;3.74;88.38;92569.56;5540340;25;20196;-81
2024/04/18 00:55:36;;;;;;;4.13;1.92;;;;;;;3.70;88.78;92565.97;5508804;26;20188;-80
2024/04/18 00:58:02;;;;;;;3.45;2.25;;;;;;;3.64;89.55;92571.69;5540463;25;20114;-80
2024/04/18 01:00:27;;;;;;;3.92;2.30;;;;;;;3.60;89.58;92574.13;5539984;25;19988;-81
2024/04/18 01:02:53;;;;;;;3.78;2.20;;;;;;;3.53;89.10;92571.91;5508553;26;20200;-80
2024/04/18 01:05:18;;;;;;;3.22;2.05;;;;;;;3.50;89.41;92571.75;5540112;25;20033;-79
2024/04/18 01:07:43;;;;;;;3.75;2.20;;;;;;;3.46;89.57;92562.88;5540039;26;19997;-80
2024/04/18 01:10:09;;;;;;;4.43;2.35;;;;;;;3.39;90.09;92563.31;5541033;25;19985;-79
2024/04/18 01:12:34;;;;;;;3.28;1.80;;;;;;;3.31;90.26;92569.28;5540683;26;20192;-79
2024/04/18 01:15:00;;;;;;;5.40;3.13;;;;;;;3.33;90.63;92565.28;5540191;25;20013;-80
2024/04/18 01:17:25;;;;;;;4.10;2.33;;;;;;;3.34;90.33;92572.13;5540548;26;19990;-80
2024/04/18 01:19:50;;;;;;;3.85;2.25;;;;;;;3.34;90.20;92573.97;5507970;26;20060;-80
2024/04/18 01:22:16;;;;;;;3.58;2.13;;;;;;;3.37;90.10;92570.72;5539923;26;19997;-80
2024/04/18 01:24:42;;;;;;;8.63;2.88;;;;;;;3.28;89.04;92575.94;5539584;26;20099;-80
2024/04/18 01:27:07;;;;;;;4.60;2.42;;;;;;;3.37;88.41;92560.19;5540360;26;20007;-80
2024/04/18 01:29:33;;;;;;;4.18;2.28;;;;;;;3.36;87.53;92558.66;5540061;26;20205;-80
2024/04/18 01:31:58;;;;;;;3.78;2.42;;;;;;;3.33;88.03;92556.59;5539471;25;20038;-80
2024/04/18 01:34:24;;;;;;;4.72;2.40;;;;;;;3.34;88.27;92558.16;5540304;26;20118;-80
2024/04/18 01:36:51;;;;;;;3.78;2.15;;;;;;;3.38;89.38;92580.19;5508108;26;20014;-80
2024/04/18 01:39:16;;;;;;;3.78;2.50;;;;;;;3.36;89.66;92577.09;5540105;26;19993;-80
2024/04/18 01:41:42;;;;;;;3.10;2.25;;;;;;;3.32;89.45;92558.47;5507976;26;19982;-79
2024/04/18 01:44:07;;;;;;;4.45;2.90;;;;;;;3.39;89.50;92561.44;5508206;26;20196;-79
2024/04/18 01:46:33;;;;;;;5.15;3.10;;;;;;;3.42;90.13;92578.53;5539627;25;19993;-80
2024/04/18 01:48:58;;;;;;;7.82;2.80;;;;;;;3.53;90.33;92579.06;5539838;26;19985;-80
2024/04/18 01:51:24;;;;;;;4.65;2.90;;;;;;;3.57;89.46;92567.59;5540220;25;20188;-79
2024/04/18 01:53:49;;;;;;;4.25;2.88;;;;;;;3.47;88.52;92574.97;5539750;25;20036;-79
2024/04/18 01:56:14;;;;;;;4.07;2.65;;;;;;;3.57;88.73;92575.50;5540033;26;20013;-79
2024/04/18 01:58:40;;;;;;;3.72;2.15;;;;;;;3.63;89.31;92570.91;5540058;26;19989;-79
2024/04/18 02:01:05;;;;;;;4.18;2.70;;;;;;;3.72;87.83;92579.63;5539538;26;20001;-80
2024/04/18 02:03:31;;;;;;;3.70;2.30;;;;;;;3.61;86.51;92594.91;5539544;26;19996;-80
2024/04/18 02:05:56;;;;;;;4.97;2.83;;;;;;;3.65;86.18;92589.06;5539797;26;19986;-80
2024/04/18 02:08:21;;;;;;;4.43;2.50;;;;;;;3.63;85.08;92594.63;5539307;26;20196;-81
2024/04/18 02:10:50;;;;;;;4.20;2.30;;;;;;;3.65;86.22;92592.47;5539554;25;19985;-80
2024/04/18 02:13:15;;;;;;;3.25;2.13;;;;;;;3.66;86.53;92609.03;5539174;26;20026;-80
2024/04/18 02:15:40;;;;;;;3.47;2.03;;;;;;;3.74;85.85;92613.59;5539132;26;20093;-80
2024/04/18 02:18:06;;;;;;;3.47;1.90;;;;;;;3.71;84.92;92609.72;5539509;26;19988;-79
2024/04/18 02:20:31;;;;;;;3.75;2.35;;;;;;;3.69;84.33;92613.72;5507570;26;20089;-79
2024/04/18 02:22:56;;;;;;;5.22;2.38;;;;;;;3.75;85.47;92618.56;5538969;26;20010;-80
2024/04/18 02:25:22;;;;;;;4.60;1.92;;;;;;;3.76;84.51;92604.28;5539429;26;19996;-80
2024/04/18 02:27:47;;;;;;;2.90;1.73;;;;;;;3.82;83.77;92603.09;5539402;25;20053;-80
2024/04/18 02:30:13;;;;;;;3.20;2.15;;;;;;;3.87;83.19;92602.22;5539035;25;19997;-80
2024/04/18 02:32:39;;;;;;;3.42;2.00;;;;;;;3.94;83.25;92599.13;5539334;26;20093;-80
2024/04/18 02:35:04;;;;;;;3.83;2.28;;;;;;;3.96;82.59;92602.25;5538679;26;20042;-80
2024/04/18 02:37:30;;;;;;;4.63;2.30;;;;;;;3.94;82.06;92605.19;5537351;26;20319;-78
2024/04/18 02:39:56;;;;;;;3.20;2.15;;;;;;;3.93;82.12;92608.13;5539087;26;20004;-79
2024/04/18 02:42:22;;;;;;;5.25;2.58;;;;;;;3.91;80.74;92610.28;5538584;25;19988;-79
2024/04/18 02:44:48;;;;;;;3.55;2.22;;;;;;;3.96;81.09;92615.44;5538600;25;19989;-79
2024/04/18 02:47:13;;;;;;;3.72;2.20;;;;;;;3.96;81.35;92618.06;5538620;25;19997;-79
2024/04/18 02:49:39;;;;;;;3.80;2.53;;;;;;;3.97;81.34;92614.38;5539363;26;20130;-80
2024/04/18 02:52:04;;;;;;;3.42;2.17;;;;;;;4.04;82.60;92604.16;5538903;25;19981;-80
2024/04/18 02:54:30;;;;;;;3.42;1.95;;;;;;;4.06;81.81;92603.84;5538661;26;20217;-80
2024/04/18 02:56:56;;;;;;;3.85;2.42;;;;;;;3.94;81.51;92607.81;5538690;26;20217;-80
2024/04/18 02:59:21;;;;;;;4.75;2.72;;;;;;;3.99;81.70;92610.34;5538693;26;20063;-79
2024/04/18 03:01:47;;;;;;;4.22;2.50;;;;;;;4.00;81.99;92603.22;5538688;26;20154;-80
2024/04/18 03:04:13;;;;;;;5.03;2.65;;;;;;;4.01;82.12;92610.81;5507198;26;19986;-80
2024/04/18 03:06:38;;;;;;;3.85;2.53;;;;;;;4.05;81.92;92621.53;5539242;26;20000;-80
2024/04/18 03:09:03;;;;;;;4.32;2.53;;;;;;;4.06;81.54;92603.84;5538477;25;19985;-80
2024/04/18 03:11:29;;;;;;;5.20;3.15;;;;;;;4.05;82.00;92613.63;5538300;25;19990;-80
2024/04/18 03:13:54;;;;;;;5.25;2.47;;;;;;;4.04;81.51;92619.97;5538172;25;19992;-79
2024/04/18 03:16:19;;;;;;;5.25;3.00;;;;;;;4.05;82.05;92629.47;5538851;25;19997;-80
2024/04/18 03:18:45;;;;;;;4.68;2.63;;;;;;;3.97;81.97;92630.97;5538283;25;20193;-80
2024/04/18 03:21:11;;;;;;;4.30;2.70;;;;;;;3.98;82.45;92621.19;5538154;25;19989;-81
2024/04/18 03:23:39;;;;;;;11.98;3.00;;;;;;;3.96;82.12;92618.06;5538240;26;20006;-81
2024/04/18 03:26:04;;;;;;;4.78;3.10;;;;;;;3.89;83.23;92629.06;5538057;25;19985;-80
2024/04/18 03:28:30;;;;;;;6.18;3.42;;;;;;;3.85;83.05;92616.75;5538062;26;20106;-81
2024/04/18 03:31:20;;;;;;;5.80;3.28;;;;;;;3.74;83.86;92627.53;5537526;25;19990;-80
2024/04/18 03:33:45;;;;;;;6.28;3.67;;;;;;;3.73;84.06;92617.31;5534935;26;19993;-80
2024/04/18 03:36:11;;;;;;;5.47;3.40;;;;;;;3.75;84.09;92610.66;5534632;26;19989;-80
2024/04/18 03:38:36;;;;;;;8.73;3.60;;;;;;;3.81;84.09;92609.47;5535091;26;19985;-81
2024/04/18 03:41:01;;;;;;;4.38;2.67;;;;;;;3.82;83.15;92603.09;5505744;26;19985;-81
2024/04/18 03:43:27;;;;;;;4.40;3.00;;;;;;;3.81;83.23;92612.09;5537683;26;19985;-81
2024/04/18 03:46:00;;;;;;;4.53;2.90;;;;;;;3.77;82.37;92623.53;5537424;25;19982;-80
2024/04/18 03:48:25;;;;;;;5.13;3.13;;;;;;;3.77;82.99;92621.69;5538805;25;19985;-79
2024/04/18 03:50:51;;;;;;;7.38;3.03;;;;;;;3.80;83.27;92634.25;5541309;25;19988;-78
2024/04/18 03:53:16;;;;;;;5.13;3.40;;;;;;;3.77;82.96;92626.19;5541324;25;19985;-78
2024/04/18 03:55:41;;;;;;;3.70;2.35;;;;;;;3.67;83.04;92635.09;5541116;25;19993;-78
2024/04/18 03:58:07;;;;;;;6.53;2.90;;;;;;;3.66;83.00;92615.09;5541625;25;20111;-79
2024/04/18 04:00:32;;;;;;;6.95;3.55;;;;;;;3.69;83.40;92655.88;5541378;25;19985;-79
2024/04/18 04:02:58;;;;;;;7.28;3.90;;;;;;;3.66;83.30;92673.06;5541069;26;20189;-79
2024/04/18 04:05:23;;;;;;;5.97;3.40;;;;;;;3.63;83.09;92665.75;5541392;26;20197;-80
2024/04/18 04:07:49;;;;;;;7.88;4.05;;;;;;;3.65;83.66;92670.75;5541094;26;20085;-80
2024/04/18 04:10:14;;;;;;;8.25;3.92;;;;;;;3.66;84.24;92667.00;5541351;25;19996;-80
2024/04/18 04:12:40;;;;;;;6.20;3.55;;;;;;;3.69;83.64;92690.16;5541703;26;20006;-79
2024/04/18 04:15:06;;;;;;;7.57;3.90;;;;;;;3.64;84.31;92677.06;5541406;25;19986;-79
2024/04/18 04:17:31;;;;;;;6.60;4.20;;;;;;;3.60;83.30;92701.41;5541390;25;20037;-79
2024/04/18 04:19:57;;;;;;;5.78;3.45;;;;;;;3.66;83.77;92694.13;5541127;26;19997;-79
2024/04/18 04:22:22;;;;;;;6.03;3.78;;;;;;;3.69;83.93;92693.56;5541286;25;19996;-79
2024/04/18 04:24:49;;;;;;;8.23;4.30;;;;;;;3.76;84.67;92686.00;5541196;26;19999;-79
2024/04/18 04:27:14;;;;;;;5.93;3.55;;;;;;;3.84;83.21;92702.19;5541236;26;20081;-79
2024/04/18 04:29:40;;;;;;;5.07;3.60;;;;;;;3.81;83.00;92704.34;5509603;26;20005;-79
2024/04/18 04:32:20;;;;;;;7.22;3.83;;;;;;;3.78;82.92;92710.19;5541103;26;19982;-79
2024/04/18 04:34:45;;;;;;;6.10;3.83;;;;;;;3.84;83.34;92716.16;5541193;26;19990;-79
2024/04/18 04:37:10;;;;;;;5.50;3.72;;;;;;;3.82;82.87;92713.78;5541113;26;19988;-79
2024/04/18 04:39:36;;;;;;;6.03;3.42;;;;;;;3.82;82.96;92721.72;5541038;25;20177;-79
2024/04/18 04:42:01;;;;;;;5.00;3.38;;;;;;;3.93;83.29;92724.09;5540592;25;20041;-79
2024/04/18 04:44:27;;;;;;;6.03;3.55;;;;;;;3.97;83.46;92735.66;5540708;26;19989;-80
2024/04/18 04:46:52;;;;;;;7.88;3.50;;;;;;;3.93;82.89;92726.75;5541099;26;19985;-80
2024/04/18 04:49:18;;;;;;;6.78;3.50;;;;;;;3.97;81.69;92719.81;5541107;26;20093;-79
2024/04/18 04:51:44;;;;;;;5.53;3.40;;;;;;;4.08;82.08;92731.69;5540891;25;19985;-80
2024/04/18 04:54:09;;;;;;;4.88;2.50;;;;;;;3.99;81.17;92733.50;5541074;25;20215;-80
2024/04/18 04:56:35;;;;;;;8.07;2.58;;;;;;;4.03;81.21;92737.09;5540545;26;20013;-79
2024/04/18 04:59:00;;;;;;;5.32;3.20;;;;;;;4.07;79.94;92743.31;5540843;26;19985;-80
2024/04/18 05:01:26;;;;;;;6.90;3.05;;;;;;;4.14;81.15;92733.13;5539531;26;20025;-80
2024/04/18 05:03:51;;;;;;;6.10;2.42;;;;;;;4.17;80.93;92731.72;5540543;26;19996;-80
2024/04/18 05:06:16;;;;;;;4.70;2.85;;;;;;;4.17;78.99;92745.72;5540181;25;19985;-79
2024/04/18 05:08:45;;;;;;;5.60;2.83;;;;;;;4.19;79.50;92743.56;5540076;25;19986;-80
2024/04/18 05:11:10;;;;;;;6.07;3.28;;;;;;;4.29;79.72;92763.63;5540725;26;19985;-81
2024/04/18 05:13:35;;;;;;;6.00;3.30;;;;;;;4.33;79.56;92742.69;5540376;25;19988;-80
2024/04/18 05:16:01;;;;;;;3.97;2.38;;;;;;;4.40;78.93;92756.25;5540683;26;19986;-80
2024/04/18 05:18:26;;;;;;;8.43;2.67;;;;;;;4.45;79.06;92756.13;5540517;25;19992;-81
2024/04/18 05:20:51;;;;;;;6.32;2.33;;;;;;;4.53;79.88;92747.47;5540480;26;19985;-81
2024/04/18 05:23:17;;;;;;;5.68;3.13;;;;;;;4.51;78.52;92764.69;5508975;26;20120;-80
2024/04/18 05:25:42;;;;;;;4.15;2.50;;;;;;;4.48;77.62;92760.00;5540355;26;19985;-81
2024/04/18 05:28:13;;;;;;;3.67;2.15;;;;;;;4.52;77.62;92750.41;5540501;26;19992;-81
2024/04/18 05:33:23;;;;;;;4.78;2.83;;;;;;;4.47;78.67;92753.97;5540320;26;19992;-80
2024/04/18 05:35:49;;;;;;;5.72;2.80;;;;;;;4.47;79.56;92763.75;5540045;25;19986;-79
2024/04/18 05:38:14;;;;;;;6.13;2.72;;;;;;;4.51;79.02;92765.47;5539468;25;20216;-79
2024/04/18 05:40:40;;;;;;;5.40;2.50;;;;;;;4.55;79.03;92760.38;5540547;25;19994;-79
2024/04/18 05:43:05;;;;;;;5.13;3.03;;;;;;;4.61;78.95;92754.66;5508318;26;20000;-80
2024/04/18 05:45:31;;;;;;;4.38;2.35;;;;;;;4.60;77.27;92757.63;5540072;25;19981;-81
2024/04/18 05:47:56;;;;;;;3.95;2.40;;;;;;;4.62;77.15;92763.38;5508346;25;19989;-80
2024/04/18 05:50:22;;;;;;;5.65;3.17;;;;;;;4.72;77.24;92760.47;5540325;25;19996;-79
2024/04/18 05:52:47;;;;;;;3.15;2.00;;;;;;;4.85;76.46;92758.81;5540090;26;19994;-79
2024/04/18 05:55:13;;;;;;;4.20;2.50;;;;;;;4.99;76.27;92758.75;5540283;25;19986;-79
2024/04/18 05:57:38;;;;;;;3.58;2.25;;;;;;;5.11;76.74;92766.06;5539888;25;20089;-79
2024/04/18 06:00:04;;;;;;;7.10;2.83;;;;;;;5.17;76.18;92770.13;5540075;26;20197;-79
2024/04/18 06:02:30;;;;;;;3.78;2.28;;;;;;;5.16;75.13;92773.88;5539667;26;19981;-79
2024/04/18 06:04:55;;;;;;;3.33;2.00;;;;;;;5.20;74.91;92775.59;5540227;25;20137;-79
2024/04/18 06:07:20;;;;;;;5.60;1.88;;;;;;;5.18;75.49;92761.13;5539980;25;20319;-79
2024/04/18 06:09:46;;;;;;;4.88;2.38;;;;;;;5.19;76.06;92752.91;5539826;25;19993;-79
2024/04/18 06:12:12;;;;;;;3.85;1.90;;;;;;;5.21;74.77;92763.94;5539778;26;19985;-81
2024/04/18 06:14:37;;;;;;;7.53;2.45;;;;;;;5.39;75.16;92751.56;5539984;26;20041;-84
2024/04/18 06:17:03;;;;;;;4.05;2.35;;;;;;;5.53;74.03;92750.66;5539545;25;19997;-82
2024/04/18 06:19:28;;;;;;;5.30;2.25;;;;;;;5.65;74.56;92752.69;5540140;25;19989;-81
2024/04/18 06:21:53;;;;;;;3.88;1.67;;;;;;;5.69;69.34;92780.84;5539777;25;19988;-82
2024/04/18 06:24:19;;;;;;;2.58;1.38;;;;;;;5.61;69.80;92768.41;5539682;26;20010;-81
2024/04/18 06:26:44;;;;;;;3.30;1.98;;;;;;;5.73;69.60;92749.28;5540024;25;20076;-81
2024/04/18 06:29:10;;;;;;;2.70;1.60;;;;;;;5.71;68.63;92762.81;5508193;26;19981;-81
2024/04/18 06:31:35;;;;;;;2.60;1.70;;;;;;;5.65;68.30;92784.44;5539306;25;19986;-80
2024/04/18 06:34:01;;;;;;;2.15;1.45;;;;;;;5.60;68.43;92764.97;5539553;26;19986;-81
2024/04/18 06:36:26;;;;;;;2.70;1.50;;;;;;;5.51;66.62;92763.41;5539771;25;19985;-81
2024/04/18 06:38:51;;;;;;;3.50;1.40;;;;;;;5.57;67.04;92778.78;5539913;25;20196;-81
2024/04/18 06:41:17;;;;;;;7.30;1.52;;;;;;;5.59;67.52;92770.56;5539029;26;19990;-81
2024/04/18 06:43:42;;;;;;;2.85;1.33;;;;;;;5.64;68.08;92778.38;5539292;26;20038;-81
2024/04/18 06:46:08;;;;;;;2.95;1.38;;;;;;;5.67;65.86;92777.75;5539309;26;19986;-80
2024/04/18 06:48:34;;;;;;;3.17;1.75;;;;;;;5.56;66.27;92784.41;5507856;26;19989;-81
2024/04/18 06:50:59;;;;;;;2.78;1.58;;;;;;;5.61;66.20;92794.84;5539318;25;20095;-81
2024/04/18 06:53:25;;;;;;;2.95;1.45;;;;;;;5.74;67.37;92793.94;5539144;26;19985;-87
2024/04/18 06:55:50;;;;;;;4.53;1.65;;;;;;;5.90;67.27;92796.13;5541448;26;20004;-87
2024/04/18 06:58:15;;;;;;;5.20;1.70;;;;;;;6.07;66.22;92790.91;5539329;25;20009;-88
2024/04/18 07:00:41;;;;;;;2.80;1.23;;;;;;;6.17;66.84;92789.81;5539514;26;19992;-87
2024/04/18 07:03:07;;;;;;;2.42;1.42;;;;;;;6.35;64.37;92794.00;5539066;25;20001;-87
2024/04/18 07:05:33;;;;;;;5.18;1.38;;;;;;;6.47;64.28;92801.31;5538979;25;19985;-87
2024/04/18 07:07:58;;;;;;;2.17;1.27;;;;;;;6.57;64.70;92792.28;5539374;26;19985;-86
2024/04/18 07:10:24;;;;;;;1.85;1.30;;;;;;;6.72;64.23;92806.91;5538752;26;19992;-87
2024/04/18 07:12:49;;;;;;;2.92;1.42;;;;;;;6.72;62.32;92798.97;5539164;26;19993;-87
2024/04/18 07:15:15;;;;;;;2.25;1.30;;;;;;;6.51;60.69;92790.88;5538704;26;20084;-82
2024/04/18 07:17:42;;;;;;;2.70;1.55;;;;;;;6.67;61.72;92797.25;5507934;25;20092;-91
2024/04/18 07:20:09;;;;;;;3.53;1.30;;;;;;;6.70;62.46;92796.63;5507093;26;20038;-82
2024/04/18 07:22:36;;;;;;;3.53;1.60;;;;;;;6.76;62.74;92805.19;5506545;26;19985;-81
2024/04/18 07:25:02;;;;;;;3.22;1.60;;;;;;;6.68;63.00;92798.81;5541591;26;19985;-83
2024/04/18 07:27:28;;;;;;;2.20;1.35;;;;;;;6.81;64.86;92812.97;5542270;26;20088;-82
2024/04/18 07:29:53;;;;;;;2.90;1.75;;;;;;;6.70;63.62;92803.78;5541840;25;19993;-82
2024/04/18 07:32:19;;;;;;;3.30;1.67;;;;;;;6.80;65.21;92811.41;5541700;25;19989;-82
2024/04/18 07:34:44;;;;;;;4.38;2.03;;;;;;;6.86;65.57;92820.75;5541841;25;20001;-82
2024/04/18 07:37:09;;;;;;;3.63;2.00;;;;;;;6.69;64.64;92818.88;5541799;25;20005;-81
2024/04/18 07:39:35;;;;;;;3.50;1.83;;;;;;;6.62;65.66;92835.25;5541937;25;20017;-83
2024/04/18 07:42:00;;;;;;;2.88;1.80;;;;;;;6.51;64.54;92849.13;5541364;25;19992;-82
2024/04/18 07:44:25;;;;;;;2.63;1.60;;;;;;;6.45;66.73;92842.41;5541435;26;20203;-81
2024/04/18 07:46:51;;;;;;;3.47;2.08;;;;;;;6.51;67.98;92843.81;5541440;25;20026;-80
2024/04/18 07:49:16;;;;;;;4.53;1.83;;;;;;;6.54;65.47;92841.34;5541506;25;20207;-82
2024/04/18 07:51:42;;;;;;;2.95;1.67;;;;;;;6.41;65.00;92834.31;5541485;25;19989;-81
2024/04/18 07:54:08;;;;;;;8.80;2.05;;;;;;;6.45;64.22;92837.13;5541303;26;20225;-81
2024/04/18 07:56:33;;;;;;;3.47;1.70;;;;;;;6.54;66.01;92843.97;5541644;25;19989;-82
2024/04/18 07:58:59;;;;;;;5.43;1.33;;;;;;;6.70;59.33;92825.75;5541666;25;20126;-81
2024/04/18 08:01:24;;;;;;;3.95;1.88;;;;;;;6.90;60.21;92831.47;5541276;25;19989;-82
2024/04/18 08:03:49;;;;;;;3.22;1.52;;;;;;;6.99;58.81;92840.97;5541431;26;19990;-82
2024/04/18 08:06:15;;;;;;;2.35;1.10;;;;;;;7.07;59.15;92838.63;5541451;26;20088;-82
2024/04/18 08:08:40;;;;;;;2.40;1.48;;;;;;;7.12;58.50;92859.66;5541350;25;20034;-81
2024/04/18 08:11:08;;;;;;;6.22;1.35;;;;;;;7.16;60.32;92849.97;5541246;25;20002;-81
2024/04/18 08:13:37;;;;;;;3.88;1.63;;;;;;;7.24;58.26;92849.16;5541806;26;19992;-76
2024/04/18 08:16:03;;;;;;;4.25;1.88;;;;;;;7.33;58.87;92865.06;5540973;25;20223;-77
2024/04/18 08:18:28;;;;;;;2.30;1.40;;;;;;;7.50;57.77;92878.25;5541003;26;19997;-80
2024/04/18 08:20:56;;;;;;;2.03;1.15;;;;;;;7.46;55.51;92881.88;5541014;26;19996;-78
2024/04/18 08:23:22;;;;;;;2.90;1.42;;;;;;;7.44;56.78;92867.03;5541289;25;19992;-78
2024/04/18 08:25:47;;;;;;;3.25;1.70;;;;;;;7.48;59.61;92892.94;5540796;26;20009;-78
2024/04/18 08:28:14;;;;;;;3.30;1.40;;;;;;;7.43;56.27;92876.09;5540962;25;20184;-78
2024/04/18 08:30:39;;;;;;;4.22;1.40;;;;;;;7.56;56.16;92886.81;5540838;25;20000;-77
2024/04/18 08:33:05;;;;;;;2.70;1.35;;;;;;;7.62;56.15;92883.66;5540543;26;20201;-78
2024/04/18 08:35:30;;;;;;;2.30;1.27;;;;;;;7.60;56.32;92879.78;5539432;26;20026;-77
2024/04/18 08:37:56;;;;;;;2.17;1.35;;;;;;;7.47;56.64;92881.56;5509324;26;19981;-77
2024/04/18 08:40:21;;;;;;;3.63;1.27;;;;;;;7.36;56.70;92882.97;5509344;26;20038;-76
2024/04/18 08:42:47;;;;;;;2.38;1.48;;;;;;;7.51;57.99;92885.13;5540217;26;19989;-78
2024/04/18 08:45:12;;;;;;;3.00;1.20;;;;;;;7.40;57.25;92876.72;5540702;25;20178;-85
2024/04/18 08:47:38;;;;;;;3.53;1.67;;;;;;;7.55;58.27;92885.25;5540772;26;20084;-84
2024/04/18 08:50:05;;;;;;;2.15;1.38;;;;;;;7.58;57.28;92897.88;5540358;25;20113;-83
2024/04/18 08:52:33;;;;;;;2.95;1.30;;;;;;;7.47;58.51;92888.72;5509647;26;19993;-82
2024/04/18 08:54:59;;;;;;;2.15;1.50;;;;;;;7.34;57.56;92877.97;5540382;25;19992;-83
2024/04/18 08:57:26;;;;;;;2.97;1.52;;;;;;;7.34;58.63;92880.63;5540403;26;20196;-84
2024/04/18 08:59:56;;;;;;;2.28;1.27;;;;;;;7.38;58.29;92894.81;5541097;25;19989;-84
2024/04/18 09:02:22;;;;;;;2.70;1.70;;;;;;;7.42;58.32;92885.13;5509224;26;19989;-81
2024/04/18 09:04:48;;;;;;;2.83;1.60;;;;;;;7.71;57.26;92901.44;5541008;25;20041;-80
2024/04/18 09:07:13;;;;;;;3.30;1.40;;;;;;;7.78;57.27;92891.88;5509087;26;20200;-81
2024/04/18 09:09:39;;;;;;;3.65;2.00;;;;;;;7.82;57.45;92895.44;5509257;26;19982;-82
2024/04/18 09:12:05;;;;;;;14.40;2.97;;;;;;;7.92;58.05;92899.63;5540731;26;19986;-81
2024/04/18 09:14:31;;;;;;;6.57;2.60;;;;;;;7.86;63.80;92892.16;5540274;26;19989;-79
2024/04/18 09:16:57;;;;;;;5.90;2.53;;;;;;;7.68;62.92;92910.81;5541078;25;20030;-75
2024/04/18 09:19:22;;;;;;;7.00;3.08;;;;;;;7.51;64.05;92900.25;5540368;25;19985;-77
2024/04/18 09:21:48;;;;;;;6.60;3.08;;;;;;;7.43;64.61;92901.84;5538286;25;20042;-77
2024/04/18 09:24:13;;;;;;;5.53;2.90;;;;;;;7.33;65.02;92902.94;5537709;26;19985;-77
2024/04/18 09:26:39;;;;;;;4.47;2.38;;;;;;;7.40;64.99;92892.63;5537882;25;19985;-77
2024/04/18 09:29:04;;;;;;;4.30;2.92;;;;;;;7.44;64.03;92903.38;5536294;25;19986;-76
2024/04/18 09:31:29;;;;;;;4.00;2.15;;;;;;;7.54;63.73;92902.28;5536002;26;20220;-77
2024/04/18 09:33:55;;;;;;;12.55;2.38;;;;;;;7.56;62.95;92911.47;5535980;25;19985;-76
2024/04/18 09:36:22;;;;;;;6.28;2.45;;;;;;;7.61;62.03;92907.84;5536388;25;19991;-76
2024/04/18 09:38:48;;;;;;;7.10;2.28;;;;;;;7.71;62.52;92899.53;5536387;26;20053;-77
2024/04/18 09:41:25;;;;;;;5.50;2.08;;;;;;;7.75;62.15;92910.31;5536938;26;20003;-76
2024/04/18 09:44:19;;;;;;;3.50;2.05;;;;;;;7.84;60.64;92922.44;5537421;26;19985;-76
2024/04/18 09:46:48;;;;;;;4.10;2.45;;;;;;;7.82;61.09;92919.31;5538370;25;19996;-76
2024/04/18 09:49:15;;;;;;;3.22;1.80;;;;;;;7.85;60.54;92912.59;5539339;25;20168;-76
2024/04/18 09:51:43;;;;;;;5.78;1.77;;;;;;;7.83;61.31;92922.75;5539607;25;20000;-77
2024/04/18 09:54:09;;;;;;;6.13;1.70;;;;;;;7.97;62.01;92902.09;5540197;26;19992;-76
2024/04/18 09:56:37;;;;;;;4.68;1.92;;;;;;;8.16;58.77;92908.88;5540081;26;19981;-77
2024/04/18 09:59:06;;;;;;;3.78;1.45;;;;;;;8.29;54.56;92909.75;5539684;26;20188;-77
2024/04/18 10:01:33;;;;;;;2.83;1.40;;;;;;;8.46;55.50;92893.72;5539889;26;20001;-76
2024/04/18 10:03:58;;;;;;;2.28;1.25;;;;;;;8.56;55.18;92888.03;5508485;26;20121;-77
2024/04/18 10:06:33;;;;;;;3.92;1.27;;;;;;;8.63;56.16;92914.88;5540276;25;20005;-78
2024/04/18 10:09:00;;;;;;;2.50;1.52;;;;;;;8.53;57.79;92907.28;5540194;25;20001;-77
2024/04/18 10:11:27;;;;;;;4.90;1.80;;;;;;;8.42;56.27;92904.22;5539941;25;19982;-77
2024/04/18 10:13:58;;;;;;;4.35;1.50;;;;;;;8.43;55.60;92897.03;5540159;26;20080;-78
2024/04/18 10:16:24;;;;;;;3.40;1.65;;;;;;;8.59;56.09;92913.97;5539716;25;20141;-77
2024/04/18 10:18:49;;;;;;;2.38;1.30;;;;;;;8.44;52.98;92901.25;5539171;25;19989;-77
2024/04/18 10:21:20;;;;;;;4.43;1.30;;;;;;;8.35;52.11;92911.91;5539880;25;20018;-77
2024/04/18 10:23:50;;;;;;;1.43;1.10;;;;;;;8.32;51.11;92909.09;5539818;25;20037;-77
2024/04/18 10:26:16;;;;;;;1.80;1.20;;;;;;;8.48;51.83;92904.03;5539821;26;19982;-76
2024/04/18 10:28:42;;;;;;;2.13;1.13;;;;;;;8.60;50.23;92917.38;5539821;25;20022;-76
2024/04/18 10:31:31;;;;;;;2.15;1.10;;;;;;;8.63;49.28;92906.91;5539102;25;19989;-77
2024/04/18 10:33:56;;;;;;;4.40;2.28;;;;;;;8.85;56.85;92926.25;5539105;25;19985;-77
2024/04/18 10:36:24;;;;;;;3.90;2.38;;;;;;;8.66;57.63;92917.97;5539972;25;19981;-76
2024/04/18 10:38:49;;;;;;;2.80;1.65;;;;;;;8.62;58.92;92918.63;5539634;25;20038;-77
2024/04/18 10:41:17;;;;;;;5.63;2.88;;;;;;;8.64;58.35;92920.94;5539051;26;20126;-76
2024/04/18 10:43:43;;;;;;;3.72;2.22;;;;;;;8.71;58.00;92921.22;5539174;26;20005;-75
2024/04/18 10:46:12;;;;;;;4.63;2.38;;;;;;;8.73;57.78;92923.53;5539533;26;19992;-75
2024/04/18 10:48:37;;;;;;;4.05;2.15;;;;;;;8.57;59.84;92920.72;5539672;26;19982;-76
2024/04/18 10:51:04;;;;;;;4.70;2.45;;;;;;;8.54;60.02;92926.66;5538997;26;19996;-76
2024/04/18 10:53:32;;;;;;;3.42;2.00;;;;;;;8.41;59.99;92920.50;5539387;25;20089;-76
2024/04/18 10:55:57;;;;;;;5.50;2.40;;;;;;;8.42;60.67;92914.84;5539279;25;20230;-76
2024/04/18 10:58:23;;;;;;;4.97;2.45;;;;;;;8.53;60.21;92920.56;5505929;26;19985;-76
2024/04/18 11:00:48;;;;;;;4.28;2.00;;;;;;;8.58;58.78;92925.66;5539223;25;19992;-76
2024/04/18 11:03:13;;;;;;;3.88;1.75;;;;;;;8.51;58.94;92922.75;5538866;25;20067;-76
2024/04/18 11:05:43;;;;;;;3.70;2.00;;;;;;;8.51;58.99;92925.41;5539097;25;19998;-76
2024/04/18 11:08:09;;;;;;;4.72;1.92;;;;;;;8.55;60.25;92928.22;5538841;25;20189;-77
2024/04/18 11:10:37;;;;;;;4.10;2.13;;;;;;;8.75;60.01;92924.78;5539051;25;19997;-76
2024/04/18 11:13:03;;;;;;;3.92;1.85;;;;;;;8.89;58.05;92934.38;5539368;25;20084;-76
2024/04/18 11:15:32;;;;;;;4.70;1.63;;;;;;;9.01;55.99;92940.50;5538429;26;20043;-76
2024/04/18 11:18:04;;;;;;;3.42;1.80;;;;;;;9.06;55.71;92939.56;5538778;26;20054;-76
2024/04/18 11:20:29;;;;;;;2.20;1.20;;;;;;;9.14;56.33;92932.59;5538814;25;19985;-76
2024/04/18 11:22:55;;;;;;;3.17;1.92;;;;;;;9.26;56.26;92934.53;5538233;26;19985;-75
2024/04/18 11:25:21;;;;;;;4.43;1.38;;;;;;;9.32;55.52;92944.66;5538439;26;19989;-76
2024/04/18 11:27:47;;;;;;;3.03;1.45;;;;;;;9.28;52.94;92924.34;5538204;26;19992;-76
2024/04/18 11:30:18;;;;;;;5.65;1.80;;;;;;;9.37;51.18;92938.34;5538826;25;19986;-76
2024/04/18 11:32:54;;;;;;;4.60;1.45;;;;;;;9.43;51.83;92939.72;5538102;26;20196;-76
2024/04/18 11:35:20;;;;;;;6.18;1.60;;;;;;;9.58;53.63;92952.38;5538015;26;20096;-76
2024/04/18 11:37:46;;;;;;;3.10;1.42;;;;;;;9.38;50.74;92961.97;5538651;26;19989;-75
2024/04/18 11:40:11;;;;;;;2.28;1.45;;;;;;;9.30;51.10;92956.72;5537987;25;19985;-75